Terminal Aerodrome Forecast
Issued by NWS Melbourne, FL

Home | Current Version | Previous Version | Text Only | Print | Product List | Glossary On
Versions: 1 2 3 4 5 6 7 8 9 10 11 12 13 14
759
FTUS42 KMLB 261127
TAFDAB
TAF
KDAB 261127Z 2612/2712 11004KT P6SM SCT110 BKN200
     FM261500 11010KT P6SM VCSH SCT025 BKN040 OVC250
     FM262000 12012KT P6SM -RA VCSH FEW025 BKN080 OVC150
     FM270100 12009KT P6SM VCSH SCT025 BKN100 OVC200
     FM270800 13011KT P6SM -SHRA SCT020 OVC070=

USA.gov is the U.S. government's official web portal to all federal, state and local government web resources and services.